Terminal Aerodrome Forecast
Issued by NWS

Home | Current Version | Previous Version | Graphics & Text | Print | Product List | Glossary On
Versions: 1 2 3 4 5 6 7 8 9 10 11 12 13 14 15 16 17 18 19 20 21
000
FTUS43 KGRB 172147 AAA
TAFMTW
TAF AMD
KMTW 172147Z 1722/1818 32008KT 1SM -DZ BR OVC003
      TEMPO 1722/1801 3SM BR OVC006
     FM180100 32005KT 4SM BR OVC007
     FM180500 30005KT 5SM BR SCT007 OVC015
      TEMPO 1805/1809 2SM BR SCT002 OVC007
     FM180900 29005KT 3SM BR SCT015 OVC025
     FM181400 24010KT 6SM BR BKN035 OVC070=

USA.gov is the U.S. government's official web portal to all federal, state and local government web resources and services.